Time;durP1;ratioP1;P1;durP2;ratioP2;P2;SDS_P1;SDS_P2;PMS_P1;PMS_P2;Temp;Humidity;BMP_temperature;BMP_pressure;BME280_temperature;BME280_humidity;BME280_pressure;Samples;Min_cycle;Max_cycle;Signal;HPM_P1;HPM_P2
2022/03/31 00:00:38;;;;;;;28.57;16.27;;;10.10;78.30;;;;;;7370195;19;20376;-43
2022/03/31 00:03:09;;;;;;;27.90;16.67;;;10.10;78.60;;;;;;7376204;19;20356;-43
2022/03/31 00:05:41;;;;;;;26.97;17.10;;;10.10;77.80;;;;;;7367095;19;20384;-43
2022/03/31 00:08:18;;;;;;;27.40;15.70;;;10.10;77.40;;;;;;7373217;19;20380;-43
2022/03/31 00:10:49;;;;;;;23.50;15.50;;;10.20;77.50;;;;;;7360413;19;20376;-43
2022/03/31 00:13:22;;;;;;;24.73;14.53;;;10.10;77.70;;;;;;7367639;19;20387;-43
2022/03/31 00:15:53;;;;;;;25.43;15.90;;;10.20;77.40;;;;;;7370770;19;20473;-44
2022/03/31 00:18:23;;;;;;;27.40;15.70;;;10.10;77.50;;;;;;7371585;19;20363;-43
2022/03/31 00:20:53;;;;;;;24.37;15.40;;;10.10;77.80;;;;;;7373032;19;20721;-43
2022/03/31 00:23:25;;;;;;;23.43;15.60;;;10.00;77.90;;;;;;7367055;19;20383;-43
2022/03/31 00:25:59;;;;;;;26.40;15.97;;;10.00;78.30;;;;;;7373177;19;20368;-43
2022/03/31 00:28:28;;;;;;;26.20;15.87;;;10.10;78.10;;;;;;7373988;19;20388;-43
2022/03/31 00:30:58;;;;;;;26.70;15.63;;;10.10;77.80;;;;;;7364352;19;21107;-44
2022/03/31 00:33:27;;;;;;;25.07;15.37;;;10.10;76.90;;;;;;7368886;19;20375;-43
2022/03/31 00:35:57;;;;;;;23.35;15.55;;;10.10;76.90;;;;;;7370445;19;20380;-43
2022/03/31 00:38:29;;;;;;;22.13;14.77;;;9.90;78.30;;;;;;7373143;19;20132;-43
2022/03/31 00:41:03;;;;;;;21.10;14.07;;;9.90;78.10;;;;;;7369560;19;20379;-43
2022/03/31 00:43:35;;;;;;;21.17;13.10;;;9.90;77.40;;;;;;7365285;19;20211;-43
2022/03/31 00:46:05;;;;;;;22.57;14.33;;;9.80;77.90;;;;;;7369171;19;20371;-43
2022/03/31 00:48:34;;;;;;;18.77;12.20;;;9.90;76.50;;;;;;7370621;19;20387;-43
2022/03/31 00:51:06;;;;;;;19.60;12.90;;;9.90;76.00;;;;;;7371929;19;20364;-43
2022/03/31 00:53:43;;;;;;;18.33;13.53;;;10.00;74.40;;;;;;7369818;19;20382;-43
2022/03/31 00:56:13;;;;;;;17.40;11.50;;;9.90;75.00;;;;;;7367634;19;20351;-44
2022/03/31 00:58:45;;;;;;;18.93;11.97;;;9.90;75.10;;;;;;7371623;19;20447;-44
2022/03/31 01:01:16;;;;;;;20.70;13.60;;;9.80;74.60;;;;;;7360636;19;20387;-44
2022/03/31 01:03:46;;;;;;;21.90;13.50;;;9.80;74.70;;;;;;7372262;19;20367;-44
2022/03/31 01:06:17;;;;;;;18.30;12.53;;;9.80;74.80;;;;;;7366123;19;20416;-44
2022/03/31 01:08:50;;;;;;;18.60;12.20;;;9.80;74.60;;;;;;7370006;19;20368;-44
2022/03/31 01:11:24;;;;;;;18.90;13.00;;;9.80;74.50;;;;;;7372814;19;20464;-44
2022/03/31 01:13:53;;;;;;;17.77;11.50;;;9.80;73.90;;;;;;7369633;19;20369;-44
2022/03/31 01:16:23;;;;;;;19.90;12.57;;;9.90;74.40;;;;;;7368861;19;20376;-43
2022/03/31 01:18:54;;;;;;;18.60;12.20;;;9.90;74.20;;;;;;7367523;19;20860;-43
2022/03/31 01:21:24;;;;;;;13.23;10.50;;;9.90;73.40;;;;;;7368863;19;20443;-43
2022/03/31 01:23:59;;;;;;;18.10;10.77;;;9.90;73.20;;;;;;7368958;19;20380;-44
2022/03/31 01:26:29;;;;;;;14.70;10.80;;;9.90;72.70;;;;;;7361144;19;20368;-43
2022/03/31 01:28:58;;;;;;;16.43;10.93;;;9.90;72.30;;;;;;7367111;19;20442;-43
2022/03/31 01:31:27;;;;;;;16.37;10.67;;;9.80;72.30;;;;;;7371541;19;20391;-43
2022/03/31 01:33:57;;;;;;;14.90;10.47;;;9.80;72.40;;;;;;7365824;19;20455;-44
2022/03/31 01:36:27;;;;;;;15.20;10.70;;;9.90;72.80;;;;;;7370344;19;20368;-43
2022/03/31 01:39:02;;;;;;;17.23;11.60;;;9.90;72.10;;;;;;7370667;19;20728;-43
2022/03/31 01:41:32;;;;;;;16.03;11.53;;;9.90;71.90;;;;;;7372200;19;20383;-43
2022/03/31 01:44:01;;;;;;;16.97;11.73;;;9.80;72.60;;;;;;7376852;19;20995;-43
2022/03/31 01:46:34;;;;;;;17.07;12.07;;;9.80;73.00;;;;;;7372579;19;20376;-44
2022/03/31 01:49:03;;;;;;;19.07;12.50;;;9.80;73.20;;;;;;7373816;19;20372;-43
2022/03/31 01:51:35;;;;;;;15.73;10.70;;;9.80;72.50;;;;;;7374314;19;20374;-44
2022/03/31 01:54:07;;;;;;;16.30;11.03;;;9.90;72.30;;;;;;7370731;19;20754;-44
2022/03/31 01:56:36;;;;;;;18.57;12.03;;;9.80;71.90;;;;;;7373200;19;20855;-44
2022/03/31 01:59:08;;;;;;;15.23;10.80;;;9.70;72.40;;;;;;7379331;19;20428;-44
2022/03/31 02:01:40;;;;;;;15.30;11.30;;;9.70;73.00;;;;;;7379673;19;20754;-40
2022/03/31 02:04:09;;;;;;;18.40;12.40;;;9.70;73.70;;;;;;7376447;19;20372;-40
2022/03/31 02:06:39;;;;;;;14.00;10.07;;;9.60;72.90;;;;;;7368423;19;20384;-40
2022/03/31 02:09:13;;;;;;;19.90;12.03;;;9.50;73.20;;;;;;7371026;19;20368;-40
2022/03/31 02:11:45;;;;;;;18.30;11.00;;;9.60;73.40;;;;;;7380423;19;20380;-40
2022/03/31 02:14:19;;;;;;;18.20;11.93;;;9.50;73.90;;;;;;7373241;19;20199;-40
2022/03/31 02:16:51;;;;;;;15.43;10.45;;;9.50;74.00;;;;;;7373011;19;20388;-40
2022/03/31 02:19:26;;;;;;;17.33;12.20;;;9.60;74.40;;;;;;7375132;19;20120;-40
2022/03/31 02:21:57;;;;;;;17.87;11.60;;;9.60;74.70;;;;;;7379677;19;20147;-40
2022/03/31 02:24:29;;;;;;;16.20;11.53;;;9.60;74.50;;;;;;7376124;19;20395;-40
2022/03/31 02:26:59;;;;;;;21.50;12.23;;;9.60;74.50;;;;;;7379807;19;20372;-40
2022/03/31 02:29:29;;;;;;;16.73;11.17;;;9.50;74.70;;;;;;7375947;19;20155;-44
2022/03/31 02:31:58;;;;;;;16.73;11.27;;;9.50;74.50;;;;;;7371243;19;20392;-44
2022/03/31 02:34:30;;;;;;;15.93;11.33;;;9.60;74.80;;;;;;7365652;19;20404;-44
2022/03/31 02:37:02;;;;;;;17.35;11.32;;;9.50;75.10;;;;;;7375617;19;20930;-44
2022/03/31 02:39:36;;;;;;;18.52;12.43;;;9.50;75.10;;;;;;7373291;19;20680;-44
2022/03/31 02:42:08;;;;;;;17.95;11.38;;;9.50;74.40;;;;;;7376364;19;20139;-43
2022/03/31 02:44:38;;;;;;;16.77;11.87;;;9.50;74.10;;;;;;7375403;19;20200;-43
2022/03/31 02:47:09;;;;;;;16.50;11.90;;;9.60;74.10;;;;;;7374748;19;20387;-44
2022/03/31 02:49:38;;;;;;;13.18;9.90;;;9.60;73.60;;;;;;7372625;19;20589;-44
2022/03/31 02:52:23;;;;;;;19.48;12.32;;;9.60;73.10;;;;;;7375506;19;20132;-44
2022/03/31 02:57:46;;;;;;;20.67;12.80;;;9.80;73.10;;;;;;7374019;19;21190;-44
2022/03/31 03:00:18;;;;;;;20.30;13.10;;;9.80;73.00;;;;;;7367838;19;20436;-43
2022/03/31 03:02:48;;;;;;;17.07;12.37;;;9.80;73.00;;;;;;7368569;19;21493;-44
2022/03/31 03:05:17;;;;;;;18.13;11.87;;;9.80;73.10;;;;;;7372580;19;20344;-44
2022/03/31 03:07:47;;;;;;;16.00;11.70;;;9.90;73.20;;;;;;7377212;19;20372;-44
2022/03/31 03:10:19;;;;;;;15.57;11.40;;;9.90;72.30;;;;;;7375003;19;21038;-44
2022/03/31 03:12:50;;;;;;;19.23;12.33;;;9.90;72.20;;;;;;7374958;19;20385;-44
2022/03/31 03:15:20;;;;;;;17.10;12.43;;;9.90;71.80;;;;;;7372969;19;20679;-44
2022/03/31 03:17:50;;;;;;;15.60;11.57;;;9.80;71.30;;;;;;7371913;19;20360;-44
2022/03/31 03:20:24;;;;;;;18.80;13.20;;;9.70;71.80;;;;;;7371668;19;20372;-42
2022/03/31 03:22:55;;;;;;;20.53;13.77;;;9.60;71.30;;;;;;7377927;19;20385;-40
2022/03/31 03:25:28;;;;;;;16.43;12.27;;;9.60;71.40;;;;;;7374402;19;20384;-40
2022/03/31 03:27:59;;;;;;;17.17;12.20;;;9.50;72.30;;;;;;7373823;19;20444;-40
2022/03/31 03:30:31;;;;;;;18.77;13.03;;;9.60;71.80;;;;;;7371733;19;20415;-40
2022/03/31 03:33:03;;;;;;;17.93;13.17;;;9.70;71.60;;;;;;7374519;19;20386;-40
2022/03/31 03:35:32;;;;;;;19.57;13.23;;;9.60;71.70;;;;;;7375257;19;20379;-40
2022/03/31 03:38:02;;;;;;;18.90;12.73;;;9.60;71.40;;;;;;7374064;19;20373;-40
2022/03/31 03:40:36;;;;;;;20.10;12.60;;;9.50;71.40;;;;;;7376846;19;20401;-43
2022/03/31 03:43:06;;;;;;;17.00;12.90;;;9.50;72.00;;;;;;7375020;19;20392;-44
2022/03/31 03:45:38;;;;;;;16.70;11.70;;;9.60;72.00;;;;;;7369460;19;20387;-42
2022/03/31 03:48:10;;;;;;;16.37;12.37;;;9.60;71.80;;;;;;7374600;19;20380;-42
2022/03/31 03:50:40;;;;;;;17.10;12.17;;;9.60;71.50;;;;;;7374895;19;20803;-43
2022/03/31 03:53:10;;;;;;;17.57;11.70;;;9.70;71.30;;;;;;7367675;19;20957;-43
2022/03/31 03:55:45;;;;;;;15.20;11.30;;;9.70;70.80;;;;;;7374391;19;20384;-42
2022/03/31 03:58:15;;;;;;;21.53;13.17;;;9.70;71.00;;;;;;7372861;19;20372;-43
2022/03/31 04:00:44;;;;;;;17.13;12.60;;;9.70;70.40;;;;;;7375780;19;20376;-43
2022/03/31 04:03:14;;;;;;;16.83;11.93;;;9.80;70.50;;;;;;7369911;19;20753;-42
2022/03/31 04:05:44;;;;;;;16.20;12.60;;;9.90;70.00;;;;;;7373243;19;21091;-43
2022/03/31 04:08:17;;;;;;;16.67;12.23;;;9.80;69.30;;;;;;7374131;19;20372;-43
2022/03/31 04:10:52;;;;;;;14.53;11.13;;;9.80;69.90;;;;;;7377595;19;20388;-42
2022/03/31 04:13:22;;;;;;;18.13;12.27;;;9.70;69.60;;;;;;7370268;19;21022;-43
2022/03/31 04:15:52;;;;;;;16.03;12.80;;;9.60;69.10;;;;;;7373136;19;20440;-43
2022/03/31 04:18:21;;;;;;;18.50;13.10;;;9.60;69.90;;;;;;7372634;19;20405;-43
2022/03/31 04:20:51;;;;;;;17.23;12.43;;;9.60;69.70;;;;;;7369876;19;20468;-43
2022/03/31 04:23:22;;;;;;;16.70;12.70;;;9.60;69.70;;;;;;7373078;19;20355;-43
2022/03/31 04:25:54;;;;;;;16.80;12.63;;;9.40;69.80;;;;;;7374815;19;20916;-43
2022/03/31 04:28:24;;;;;;;20.53;13.40;;;9.30;70.30;;;;;;7370416;19;20377;-42
2022/03/31 04:30:54;;;;;;;14.33;12.50;;;9.30;71.00;;;;;;7373963;19;20922;-43
2022/03/31 04:33:29;;;;;;;18.83;13.90;;;9.30;71.10;;;;;;7369592;19;20429;-43
2022/03/31 04:36:01;;;;;;;19.33;13.40;;;9.30;71.40;;;;;;7370067;19;20362;-43
2022/03/31 04:38:31;;;;;;;16.30;13.13;;;9.30;71.10;;;;;;7367775;19;20392;-43
2022/03/31 04:41:03;;;;;;;15.57;12.80;;;9.30;71.10;;;;;;7362686;19;20692;-44
2022/03/31 04:43:32;;;;;;;17.85;13.13;;;9.30;71.30;;;;;;7368787;19;20814;-43
2022/03/31 04:46:02;;;;;;;19.30;12.55;;;9.10;71.60;;;;;;7372056;19;20131;-43
2022/03/31 04:48:33;;;;;;;16.27;12.38;;;9.10;72.00;;;;;;7365291;19;20124;-43
2022/03/31 04:51:02;;;;;;;17.00;13.40;;;9.20;72.50;;;;;;7371674;19;20135;-43
2022/03/31 04:53:37;;;;;;;21.73;13.07;;;8.90;72.70;;;;;;7372512;19;20804;-43
2022/03/31 04:56:13;;;;;;;23.80;15.30;;;8.90;73.20;;;;;;7373041;19;20368;-43
2022/03/31 04:58:43;;;;;;;18.30;13.00;;;8.90;73.70;;;;;;7370664;19;20780;-43
2022/03/31 05:01:16;;;;;;;16.67;12.50;;;9.00;73.70;;;;;;7371704;19;20404;-43
2022/03/31 05:03:49;;;;;;;17.10;13.33;;;9.00;73.60;;;;;;7369323;19;20376;-43
2022/03/31 05:06:19;;;;;;;16.20;11.40;;;9.00;73.40;;;;;;7374693;19;20376;-43
2022/03/31 05:09:12;;;;;;;18.37;12.40;;;9.00;72.70;;;;;;7367997;19;20938;-44
2022/03/31 05:11:46;;;;;;;16.17;12.35;;;9.00;73.00;;;;;;7376152;19;20800;-43
2022/03/31 05:14:16;;;;;;;18.52;13.02;;;8.90;72.60;;;;;;7356378;19;20159;-44
2022/03/31 05:16:48;;;;;;;17.07;12.33;;;8.90;72.50;;;;;;7360619;19;20599;-44
2022/03/31 05:19:17;;;;;;;16.37;11.90;;;9.00;72.40;;;;;;7367864;19;20402;-44
2022/03/31 05:21:54;;;;;;;16.48;11.75;;;9.10;71.90;;;;;;7373281;19;20471;-44
2022/03/31 05:24:26;;;;;;;16.67;12.65;;;9.20;71.60;;;;;;7372966;19;20595;-44
2022/03/31 05:26:58;;;;;;;17.70;13.93;;;9.20;70.80;;;;;;7373949;19;20131;-44
2022/03/31 05:29:35;;;;;;;21.75;14.45;;;9.10;70.70;;;;;;7371578;19;20585;-43
2022/03/31 05:32:05;;;;;;;20.13;13.18;;;9.00;71.10;;;;;;7370156;19;20124;-44
2022/03/31 05:34:35;;;;;;;27.48;17.77;;;9.00;71.10;;;;;;7375995;19;20135;-44
2022/03/31 05:37:06;;;;;;;16.90;13.20;;;9.10;71.70;;;;;;7375962;19;20151;-44
2022/03/31 05:39:35;;;;;;;17.45;12.98;;;9.20;70.80;;;;;;7360253;19;20690;-39
2022/03/31 05:42:08;;;;;;;22.80;14.25;;;9.10;70.60;;;;;;7370464;19;20164;-40
2022/03/31 05:44:40;;;;;;;19.70;13.50;;;9.10;71.30;;;;;;7376351;19;21534;-40
2022/03/31 05:47:12;;;;;;;19.95;12.75;;;9.10;70.60;;;;;;7377438;19;21437;-40
2022/03/31 05:49:41;;;;;;;27.05;13.73;;;9.10;70.30;;;;;;7380645;19;20876;-40
2022/03/31 05:52:11;;;;;;;16.88;12.82;;;9.10;70.50;;;;;;7373078;19;20143;-40
2022/03/31 05:54:40;;;;;;;17.60;12.43;;;9.10;70.20;;;;;;7378767;19;20130;-40
2022/03/31 05:57:12;;;;;;;17.20;12.25;;;9.00;70.00;;;;;;7376760;19;20128;-40
2022/03/31 05:59:45;;;;;;;19.15;13.38;;;9.00;70.20;;;;;;7377092;19;20645;-40
2022/03/31 06:02:17;;;;;;;17.27;11.90;;;8.90;70.30;;;;;;7377791;19;20135;-40
2022/03/31 06:04:46;;;;;;;19.73;13.38;;;9.00;70.90;;;;;;7377016;19;20151;-40
2022/03/31 06:07:18;;;;;;;20.00;13.30;;;9.10;70.20;;;;;;7378555;19;20135;-40
2022/03/31 06:09:50;;;;;;;17.55;12.93;;;9.10;70.00;;;;;;7377456;19;20391;-40
2022/03/31 06:12:22;;;;;;;17.70;12.35;;;9.00;70.30;;;;;;7379158;19;20151;-40
2022/03/31 06:14:54;;;;;;;18.73;13.32;;;8.90;70.30;;;;;;7375408;19;20571;-40
2022/03/31 06:17:24;;;;;;;19.48;13.93;;;9.10;70.40;;;;;;7379063;19;20151;-40
2022/03/31 06:19:55;;;;;;;17.93;13.00;;;9.20;69.60;;;;;;7377016;19;20132;-39
2022/03/31 06:22:25;;;;;;;18.83;14.10;;;9.20;69.60;;;;;;7375663;19;20372;-39
2022/03/31 06:24:54;;;;;;;19.23;13.73;;;9.30;69.50;;;;;;7376951;19;20580;-40
2022/03/31 06:27:29;;;;;;;17.90;12.80;;;9.20;69.50;;;;;;7369466;19;20401;-40
2022/03/31 06:29:58;;;;;;;19.77;13.67;;;9.30;69.50;;;;;;7372719;19;20412;-40
2022/03/31 06:32:28;;;;;;;15.30;12.83;;;9.30;69.00;;;;;;7371101;19;21053;-40
2022/03/31 06:35:03;;;;;;;17.37;13.63;;;9.30;69.10;;;;;;7370139;19;20924;-40
2022/03/31 06:37:33;;;;;;;23.40;13.57;;;9.30;69.20;;;;;;7362321;19;20897;-39
2022/03/31 06:40:03;;;;;;;19.33;14.57;;;9.30;69.50;;;;;;7374480;19;20405;-41
2022/03/31 06:42:37;;;;;;;20.50;13.77;;;9.40;69.30;;;;;;7372396;19;20408;-40
2022/03/31 06:45:14;;;;;;;20.00;14.00;;;9.40;69.10;;;;;;7374142;19;20455;-40
2022/03/31 06:47:44;;;;;;;18.85;15.20;;;9.50;68.70;;;;;;7374967;19;20360;-40
2022/03/31 06:50:14;;;;;;;21.60;16.20;;;9.50;68.50;;;;;;7373060;19;20637;-40
2022/03/31 06:52:46;;;;;;;22.87;16.10;;;9.60;68.60;;;;;;7378390;19;21012;-40
2022/03/31 06:55:18;;;;;;;19.07;14.37;;;9.80;68.50;;;;;;7377164;19;20348;-40
2022/03/31 06:57:50;;;;;;;21.30;13.50;;;9.90;67.90;;;;;;7377509;19;20383;-41
2022/03/31 07:00:22;;;;;;;18.63;14.13;;;10.00;65.90;;;;;;7377489;19;20448;-40
2022/03/31 07:02:52;;;;;;;18.20;12.37;;;10.00;65.80;;;;;;7377982;19;20385;-40
2022/03/31 07:05:24;;;;;;;18.00;12.90;;;10.00;65.70;;;;;;7379512;19;20738;-41
2022/03/31 07:07:53;;;;;;;17.43;12.77;;;10.10;65.50;;;;;;7378306;19;20384;-40
2022/03/31 07:10:24;;;;;;;19.20;13.53;;;10.20;64.80;;;;;;7376137;19;20393;-40
2022/03/31 07:12:56;;;;;;;18.47;13.40;;;10.20;65.10;;;;;;7378522;19;20926;-40
2022/03/31 07:15:28;;;;;;;16.30;12.20;;;10.20;64.10;;;;;;7373280;19;20395;-40
2022/03/31 07:18:03;;;;;;;17.93;13.37;;;10.20;64.50;;;;;;7374891;19;20372;-40
2022/03/31 07:20:32;;;;;;;19.40;14.00;;;10.20;63.60;;;;;;7378696;19;21494;-44
2022/03/31 07:23:02;;;;;;;16.50;13.07;;;10.10;64.40;;;;;;7373511;19;20380;-44
2022/03/31 07:25:32;;;;;;;16.67;13.03;;;10.30;64.80;;;;;;7375420;19;20388;-44
2022/03/31 07:28:05;;;;;;;17.33;12.70;;;10.40;63.80;;;;;;7379718;19;20906;-44
2022/03/31 07:30:37;;;;;;;16.93;12.87;;;10.40;63.50;;;;;;7374684;19;20377;-43
2022/03/31 07:33:09;;;;;;;17.67;13.67;;;10.20;64.10;;;;;;7379571;19;21399;-44
2022/03/31 07:35:39;;;;;;;17.00;13.73;;;10.30;64.40;;;;;;7378731;19;20468;-43
2022/03/31 07:38:10;;;;;;;16.27;13.73;;;10.40;64.70;;;;;;7376755;19;20363;-43
2022/03/31 07:40:43;;;;;;;18.73;13.80;;;10.40;63.10;;;;;;7377538;19;20387;-43
2022/03/31 07:43:50;;;;;;;18.27;12.37;;;10.40;64.10;;;;;;7370887;19;25150;-43
2022/03/31 07:46:19;;;;;;;20.50;14.07;;;10.60;63.50;;;;;;7371998;19;20943;-42
2022/03/31 07:48:56;;;;;;;17.97;13.60;;;10.60;63.20;;;;;;7375227;19;20390;-44
2022/03/31 07:51:29;;;;;;;19.20;15.07;;;10.80;62.80;;;;;;7377769;19;20376;-43
2022/03/31 07:54:04;;;;;;;20.57;14.53;;;10.80;62.90;;;;;;7374003;19;20376;-42
2022/03/31 07:56:33;;;;;;;18.27;13.67;;;10.70;62.80;;;;;;7377376;19;21095;-42
2022/03/31 07:59:06;;;;;;;19.60;14.23;;;10.60;63.20;;;;;;7376180;19;20412;-42
2022/03/31 08:01:39;;;;;;;20.13;13.80;;;10.60;63.90;;;;;;7375066;19;20422;-42
2022/03/31 08:04:08;;;;;;;18.70;14.47;;;10.60;62.90;;;;;;7376526;19;20368;-42
2022/03/31 08:06:43;;;;;;;17.87;13.07;;;10.60;62.70;;;;;;7377093;19;20359;-43
2022/03/31 08:09:20;;;;;;;18.20;13.30;;;10.50;62.90;;;;;;7377798;19;20460;-42
2022/03/31 08:11:52;;;;;;;18.53;13.60;;;10.60;63.20;;;;;;7377569;19;20391;-42
2022/03/31 08:14:25;;;;;;;21.60;15.87;;;10.60;63.10;;;;;;7375671;19;20710;-42
2022/03/31 08:16:59;;;;;;;19.70;14.70;;;10.50;63.70;;;;;;7374631;19;20380;-42
2022/03/31 08:19:32;;;;;;;17.27;13.47;;;10.60;63.40;;;;;;7377283;19;20409;-42
2022/03/31 08:22:04;;;;;;;18.50;14.10;;;10.70;63.60;;;;;;7376601;19;20373;-42
2022/03/31 08:24:36;;;;;;;17.60;13.67;;;10.60;63.00;;;;;;7374822;19;20360;-42
2022/03/31 08:27:09;;;;;;;19.60;15.03;;;10.50;63.30;;;;;;7374907;19;20950;-42
2022/03/31 08:29:44;;;;;;;23.40;15.60;;;10.50;63.30;;;;;;7375517;19;20401;-42
2022/03/31 08:32:15;;;;;;;22.70;16.33;;;10.30;63.70;;;;;;7372632;19;20795;-43
2022/03/31 08:34:47;;;;;;;21.30;14.50;;;10.30;63.80;;;;;;7374684;19;20379;-43
2022/03/31 08:37:16;;;;;;;19.80;14.67;;;10.30;64.70;;;;;;7377106;19;20347;-44
2022/03/31 08:39:48;;;;;;;20.67;14.67;;;10.40;64.70;;;;;;7372872;19;20760;-43
2022/03/31 08:42:20;;;;;;;20.70;15.57;;;10.50;63.70;;;;;;7375298;19;20395;-43
2022/03/31 08:44:54;;;;;;;23.37;16.77;;;10.70;63.40;;;;;;7375368;19;20381;-43
2022/03/31 08:47:29;;;;;;;17.40;14.20;;;10.70;64.30;;;;;;7375604;19;20979;-42
2022/03/31 08:49:59;;;;;;;19.40;14.43;;;10.90;63.50;;;;;;7376055;19;20376;-43
2022/03/31 08:52:31;;;;;;;19.47;13.90;;;11.10;62.60;;;;;;7373598;19;20380;-43
2022/03/31 08:55:00;;;;;;;21.13;14.50;;;11.20;61.60;;;;;;7375057;19;20376;-43
2022/03/31 08:57:44;;;;;;;19.53;14.77;;;11.20;61.40;;;;;;7375383;19;21029;-43
2022/03/31 09:00:20;;;;;;;19.00;14.67;;;11.40;60.60;;;;;;7371535;19;20990;-39
2022/03/31 09:03:01;;;;;;;19.77;15.43;;;11.30;61.60;;;;;;7371696;19;20380;-40
2022/03/31 09:05:38;;;;;;;19.60;15.03;;;11.40;61.40;;;;;;7373030;19;20392;-40
2022/03/31 09:08:09;;;;;;;18.43;15.07;;;11.70;60.50;;;;;;7376407;19;20924;-39
2022/03/31 09:10:41;;;;;;;22.53;16.40;;;11.90;60.00;;;;;;7375086;19;20894;-39
2022/03/31 09:13:22;;;;;;;20.40;15.30;;;12.10;59.40;;;;;;7372241;19;20368;-40
2022/03/31 09:15:56;;;;;;;21.70;15.87;;;12.00;59.50;;;;;;7372144;19;20388;-40
2022/03/31 09:18:31;;;;;;;24.33;16.20;;;12.20;58.70;;;;;;7374894;19;20922;-40
2022/03/31 09:21:12;;;;;;;21.13;16.70;;;12.20;58.90;;;;;;7375497;19;21033;-40
2022/03/31 09:23:49;;;;;;;18.20;14.50;;;12.20;58.20;;;;;;7372985;19;20404;-40
2022/03/31 09:26:20;;;;;;;20.77;14.70;;;12.20;58.70;;;;;;7371436;19;20375;-40
2022/03/31 09:28:52;;;;;;;22.57;16.03;;;12.20;58.90;;;;;;7371062;19;20396;-40
2022/03/31 09:31:28;;;;;;;19.83;15.77;;;12.00;59.10;;;;;;7367298;19;20811;-45
2022/03/31 09:33:59;;;;;;;21.40;15.90;;;12.00;59.50;;;;;;7374350;19;20917;-44
2022/03/31 09:36:29;;;;;;;18.60;14.57;;;12.20;58.80;;;;;;7372931;19;20413;-43
2022/03/31 09:39:03;;;;;;;19.33;14.83;;;12.70;58.50;;;;;;7372536;19;20391;-44
2022/03/31 09:41:34;;;;;;;23.13;14.83;;;13.00;57.20;;;;;;7375723;19;20372;-44
2022/03/31 09:44:17;;;;;;;21.27;15.13;;;13.40;56.50;;;;;;7371612;19;20372;-44
2022/03/31 09:46:52;;;;;;;19.00;15.70;;;13.70;55.60;;;;;;7366099;19;21139;-44
2022/03/31 09:49:28;;;;;;;19.03;14.13;;;13.70;56.10;;;;;;7373324;19;20782;-44
2022/03/31 09:52:01;;;;;;;20.47;15.20;;;13.50;55.40;;;;;;7368954;19;20419;-44
2022/03/31 09:54:32;;;;;;;20.20;15.07;;;13.40;55.20;;;;;;7371808;19;20372;-44
2022/03/31 09:57:03;;;;;;;19.60;15.17;;;13.30;55.60;;;;;;7372326;19;20393;-43
2022/03/31 09:59:34;;;;;;;21.40;15.57;;;13.10;55.90;;;;;;7370716;19;20424;-43
2022/03/31 10:02:08;;;;;;;18.70;15.00;;;13.00;56.70;;;;;;7376210;19;20399;-44
2022/03/31 10:04:39;;;;;;;21.77;15.40;;;13.00;56.20;;;;;;7381415;19;20387;-44
2022/03/31 10:07:13;;;;;;;21.83;16.10;;;13.30;56.40;;;;;;7380980;19;20766;-44
2022/03/31 10:09:45;;;;;;;21.03;16.13;;;13.90;56.00;;;;;;7382026;19;20406;-44
2022/03/31 10:12:24;;;;;;;22.33;16.30;;;14.50;54.70;;;;;;7377259;19;20391;-44
2022/03/31 10:14:59;;;;;;;18.60;14.87;;;15.60;53.00;;;;;;7380598;19;20380;-44
2022/03/31 10:17:33;;;;;;;19.40;15.03;;;17.20;48.80;;;;;;7375232;19;20375;-45
2022/03/31 10:20:10;;;;;;;21.13;17.10;;;17.60;47.40;;;;;;7375875;19;20384;-45
2022/03/31 10:25:22;;;;;;;20.10;15.80;;;17.50;46.90;;;;;;7375618;19;20728;-44
2022/03/31 10:27:52;;;;;;;18.63;14.47;;;17.00;47.40;;;;;;7373820;19;20368;-45
2022/03/31 10:30:25;;;;;;;20.63;16.70;;;16.70;47.90;;;;;;7375671;19;20396;-42
2022/03/31 10:33:01;;;;;;;19.23;15.17;;;16.50;48.40;;;;;;7377940;19;20416;-40
2022/03/31 10:35:37;;;;;;;20.80;16.47;;;16.00;48.70;;;;;;7380598;19;20380;-40
2022/03/31 10:38:17;;;;;;;20.77;16.20;;;15.60;50.20;;;;;;7380978;19;20518;-40
2022/03/31 10:40:53;;;;;;;21.43;15.83;;;15.10;51.20;;;;;;7378980;19;20470;-40
2022/03/31 10:43:24;;;;;;;22.00;16.00;;;14.90;52.10;;;;;;7380540;19;20380;-40
2022/03/31 10:45:57;;;;;;;26.30;16.60;;;14.80;52.20;;;;;;7378971;19;20376;-40
2022/03/31 10:48:31;;;;;;;24.83;15.60;;;14.50;52.70;;;;;;7376333;19;20388;-40
2022/03/31 10:51:05;;;;;;;19.40;15.50;;;14.60;53.10;;;;;;7380148;19;20379;-40
2022/03/31 10:53:39;;;;;;;23.90;17.30;;;14.60;53.10;;;;;;7376980;19;20447;-40
2022/03/31 10:56:20;;;;;;;21.40;15.87;;;14.60;53.40;;;;;;7376618;19;20945;-40
2022/03/31 10:58:53;;;;;;;22.37;16.60;;;14.70;53.50;;;;;;7377113;19;20424;-40
2022/03/31 11:01:31;;;;;;;23.90;17.90;;;14.70;53.10;;;;;;7377932;19;20410;-40
2022/03/31 11:04:08;;;;;;;19.97;15.70;;;14.60;53.60;;;;;;7378447;19;21168;-40
2022/03/31 11:06:48;;;;;;;24.60;17.47;;;14.60;53.70;;;;;;7381070;19;20448;-40
2022/03/31 11:09:25;;;;;;;27.17;16.70;;;14.70;53.70;;;;;;7377749;19;20380;-40
2022/03/31 11:11:57;;;;;;;24.00;17.30;;;14.90;52.80;;;;;;7376495;19;20367;-40
2022/03/31 11:14:27;;;;;;;20.93;17.23;;;14.90;53.00;;;;;;7374453;19;20372;-40
2022/03/31 11:16:59;;;;;;;20.47;16.00;;;15.00;52.90;;;;;;7351882;19;20384;-39
2022/03/31 11:19:39;;;;;;;22.90;17.70;;;15.00;52.90;;;;;;7374431;19;20380;-40
2022/03/31 11:22:09;;;;;;;22.03;17.07;;;14.90;52.80;;;;;;7352739;19;20903;-40
2022/03/31 11:24:39;;;;;;;22.60;16.93;;;14.60;53.60;;;;;;7365237;19;20966;-40
2022/03/31 11:27:08;;;;;;;22.50;16.80;;;14.70;53.80;;;;;;7368108;19;21084;-41
2022/03/31 11:29:38;;;;;;;21.83;16.53;;;14.60;53.70;;;;;;7365936;19;20393;-46
2022/03/31 11:32:08;;;;;;;21.53;15.30;;;14.40;55.00;;;;;;7367094;19;20486;-44
2022/03/31 11:34:40;;;;;;;22.00;16.20;;;14.50;54.60;;;;;;7367387;19;20416;-44
2022/03/31 11:37:19;;;;;;;20.83;16.50;;;14.40;54.50;;;;;;7365794;19;20380;-44
2022/03/31 11:39:49;;;;;;;21.73;15.63;;;14.50;54.70;;;;;;7371740;19;21008;-44
2022/03/31 11:42:21;;;;;;;24.50;16.77;;;14.30;54.60;;;;;;7366959;19;20775;-44
2022/03/31 11:44:55;;;;;;;19.23;14.90;;;14.30;54.60;;;;;;7359129;19;20368;-44
2022/03/31 11:47:30;;;;;;;24.47;16.23;;;14.30;55.00;;;;;;7368427;19;20376;-44
2022/03/31 11:50:20;;;;;;;24.37;16.13;;;13.80;55.60;;;;;;7375045;19;20364;-44
2022/03/31 11:52:52;;;;;;;23.37;16.07;;;13.50;56.40;;;;;;7365823;19;20372;-44
2022/03/31 11:55:23;;;;;;;25.77;18.43;;;13.40;56.90;;;;;;7371783;19;20380;-44
2022/03/31 11:57:56;;;;;;;24.23;15.90;;;13.40;57.00;;;;;;7361637;19;21376;-45
2022/03/31 12:00:28;;;;;;;20.90;15.73;;;13.40;57.20;;;;;;7358698;19;20463;-40
2022/03/31 12:03:02;;;;;;;22.27;15.93;;;13.50;57.00;;;;;;7373588;19;20838;-40
2022/03/31 12:05:35;;;;;;;23.03;16.30;;;13.60;56.80;;;;;;7361414;19;20902;-40
2022/03/31 12:08:05;;;;;;;23.07;16.53;;;13.50;56.80;;;;;;7369465;19;20391;-40
2022/03/31 12:10:34;;;;;;;21.13;15.00;;;13.50;57.80;;;;;;7357498;19;20918;-41
2022/03/31 12:13:04;;;;;;;27.60;17.90;;;13.50;57.20;;;;;;7356664;19;20387;-40
2022/03/31 12:15:34;;;;;;;23.30;15.90;;;13.40;57.50;;;;;;7351154;19;20379;-38
2022/03/31 12:18:09;;;;;;;24.70;17.27;;;13.10;57.80;;;;;;7356352;19;21151;-39
2022/03/31 12:20:42;;;;;;;22.57;16.17;;;13.10;58.80;;;;;;7369397;19;20376;-39
2022/03/31 12:23:23;;;;;;;21.33;15.80;;;13.00;58.70;;;;;;7367762;19;20901;-40
2022/03/31 12:25:53;;;;;;;22.63;15.90;;;13.40;58.10;;;;;;7342877;19;20997;-39
2022/03/31 12:28:24;;;;;;;29.37;16.30;;;13.60;57.50;;;;;;7365697;19;20376;-39
2022/03/31 12:30:58;;;;;;;23.43;16.13;;;13.70;57.40;;;;;;7365493;19;20380;-43
2022/03/31 12:33:30;;;;;;;24.40;16.47;;;13.80;57.80;;;;;;7368715;19;20855;-43
2022/03/31 12:36:07;;;;;;;23.77;16.83;;;13.80;57.80;;;;;;7369078;19;20468;-43
2022/03/31 12:38:46;;;;;;;22.57;15.90;;;13.80;57.50;;;;;;7364619;19;20383;-43
2022/03/31 12:41:22;;;;;;;26.07;17.10;;;13.80;57.60;;;;;;7358222;19;20922;-42
2022/03/31 12:44:02;;;;;;;19.80;15.60;;;13.80;57.30;;;;;;7353713;19;20400;-44
2022/03/31 13:12:31;;;;;;;22.73;14.90;;;12.80;59.10;;;;;;7427232;19;20478;-68
2022/03/31 13:15:03;;;;;;;22.10;14.73;;;12.70;60.00;;;;;;7408535;19;20622;-70
2022/03/31 13:17:34;;;;;;;24.67;15.90;;;12.70;60.90;;;;;;7406251;19;20465;-67
2022/03/31 13:20:03;;;;;;;24.13;16.60;;;12.80;60.00;;;;;;7427445;19;21487;-68
2022/03/31 13:22:33;;;;;;;22.67;16.43;;;12.80;59.10;;;;;;7432316;19;20364;-69
2022/03/31 13:25:06;;;;;;;23.60;16.30;;;12.80;59.90;;;;;;7433473;19;20419;-70
2022/03/31 13:27:40;;;;;;;21.13;15.30;;;12.80;59.50;;;;;;7427600;19;20477;-69